Timeline UpdatesTrip UpdatesNews PostsPvt PostsTravel TipsAdmin PostsConv PostsFollowed PostsChat RequestsBlog PostsPNR Posts

Disclaimer
Search
 
 
Thu Sep 18, 2014 01:08:00 ISTHomeTrainsΣChainsAtlasPNRForumGalleryNewsFAQTripsMembersLoginFeedback
No Recent News for this Train
Other Trains in the News **new
Latest...
.
Mon Sep 08, 2014 (11:27PM)
⇐ Return Journey: Train# 17480

17479/Puri-Tirupati Express

Time-Table HAS CHANGED.
Sep 08 (11:27PM)
Change Departure Station:
Change Arrival Station:
Post a Train Travel TipPost a Train Travel Tip **new
Post a Comment/Question/Picture/VideoPost a Comment/Question/Picture/Video
Inaugural Run
Wed Jan 01, 1992
Pantry/Catering
✕ NO Pantry Car
✕ NO Catering
Loco/Rake Reversals
KUR/Khurda Road Junction (7); VSKP/Visakhapatnam Junction (8);
RSA - Rake Sharing
Rake/Coach Composition
Entry# 194081 Author: νιηαy దత్త 1:; SLRD(For Disabled + Ladies Only) - UR - UR - S1 - S2 - S3 - S4 - S5 - B1 - UR - UR - UR - SLR(Ladies Only)
Loco
Official Loco:- PURI/KUR - VSKP:- WAM-4 VSKP - RJY:- WAM-4/WAP-1 RJY - BZA:-...
Read more...
WDM-2A/WDM-3A BZA - TPTY:- WAM-4/WAP-1
News    PNR    Forum    Time-Table    Availability    Fare Chart    Map    Arr/Dep History    Trips    Gallery    ΣChains    X/O    Timeline    
Travel Time: 3h 30m    9 halts    Distance: 200 km    Avg Speed: 57 km/hr
Type: Mail/Express
Zone: SCR/South Central
Departs @ 23:40
Platform# 2
SM WTF 
Visakhapatnam Junction/VSKP 
Arrives @ 03:10 +1 night
Platform# 1
 MT TFS
Rajahmundry/RJY 

9 halts. 32 intermediate Stations between Visakhapatnam Junction and Rajahmundry

Show ALL intermediate Stations  Show Old Time-Table

#CodeStation NameX/OArrivesAvgDepartsAvgHaltPFDay#KmSpeedElevZoneAddress
1PURIPuri (5)  -12:25-91-469.04912mECoRPuri, Odisha
2SILSakhi Gopal (3)  12:45-12:46-1m--1-452.64210mECoRPuri, Odisha
3KURKhurda Road Junction (7)X13:25-13:50-25m--1-425.17925mECoRKhordha, Odisha
4NKPNirakarpurX  14:11 14:10-14:12-1 2m--1-398.77121mECoRNirakarpur, Odisha
5BSDPBhusandpurX  14:20 14:18-14:21 14:20-1 2m--1-391.67420mECoRBhushandapur, Odisha
6KAPGKalupara Ghat  14:30 14:28-14:31 14:30-1 2m--1-381.86710mECoRChandeswar, Odisha
7KUUKuhuri  14:38 14:36-14:39 14:38-1 2m--1-375.06826mECoRKhordha, Odisha
8GNGDGangadharpur  14:47 14:45-14:48 14:47-1 2m--1-367.16022mECoRKhordha, Odisha
9BALUBalugaon (3)X  15:01 15:00-15:02-1 2m--1-354.14811mECoR752030, Odisha
10CLKAChilka  15:09 15:11-15:10 15:13-1 2m--1-346.87525mECoRBarkul, Odisha
11KITKhallikot (3)X  15:18 15:21-15:19 15:23-1 2m--1-336.97513mECoRKhallikot, Odisha
12RBARambha  15:29 15:32-15:30 15:34-1 2m--1-325.68614mECoRGanjam District, Odisha
13GAMGanjamX  15:43 15:46-15:44 15:48-1 2m--1-308.4678mECoRGanjam, Odisha
14CAPChatrapur  15:54 15:56-15:55 15:58-1 2m--1-299.55836mECoRChatrapur, Odisha
15BAMBrahmapur (3)  16:15 16:20-16:20 16:25-5m31-278.07327mECoRBerhampur, Odisha
16IPMIchchapuram  16:42 16:45-16:43 16:47-1 2m--1-253.68321mECoRIchchapuram, Andhra Pradesh
17SPTSompeta (4)X  17:01 17:00-17:02-1 2m--1-235.57148mECoRKanchili, Andhra Pradesh
18MMSMandasa Road  17:15 17:18-17:16 17:20-1 2m11-216.71238mECoRSrikakulam, Andhra Pradesh
19PSAPalasa (3)X  18:25-18:30-5m--1-203.77431mECoRKasibugga, Andhra Pradesh
20PUNPundi  18:41 18:40-18:42-1 2m--1-191.46838mECoRSrikakulam, Andhra Pradesh
21NWPNaupada Junction  18:55 18:54-18:56-1 2m--1-177.98313mECoRNuapada . ph.no. 08945-249728, Andhra Pradesh
22KBMKotabommali  19:07 19:06-19:08-1 2m--1-164.18213mECoRSrikakulam, Andhra Pradesh
23TIUTilaru (4)  19:19 19:18-19:20-1 2m--1-150.45950mECoRSrikakulam District, Andhra Pradesh
24CHESrikakulam Road (4)X  19:40-19:45-5m--1-130.74834mECoRsrikakulam road ph .no. 08942-287222, Andhra Pradesh
25DUSIDusi  19:54 19:53-19:55-1 2m--1-124.26628mECoRSrikakulam, Andhra Pradesh
26PDUPonduru  20:04 20:03-20:05-1 2m--1-115.47539mECoRSrikakulam, Andhra Pradesh
27SGDMSigadam  20:14 20:13-20:15-1 2m--1-105.38067mECoRSrikakulam, Andhra Pradesh
28CPPChipurupalleX  20:26 20:25-20:27-1 2m--1-92.14999mECoRCheepurupalli, Andhra Pradesh
29GVIGarividi  20:36 20:35-20:37-1 2m--1-85.52892mECoRGarividi Railway Station Rd, Andhra Pradesh
30VZMVizianagaram Junction (5)  21:30-21:35-5m--1-61.27063mECoRVizianagaram, Andhra Pradesh
31KTVKottavalasa Junction (5)O  22:06 22:05-22:07-1 2m--1-26.26858mECoRVizianagaram District, Andhra Pradesh
32SCMSimhachalam (2)XO  22:24 22:23-22:25-1 2m--1-8.1927mECoRVisakhapatnam, Andhra Pradesh
33VSKPVisakhapatnam Junction (8)»X23:20-23:40-20m210.03511mECoRVishakhapatnam 530001, Andhra Pradesh
34DVDDuvvada (4)X  00:09 00:08-00:10-1 2m1216.35346mECoRVishakhapatnam District, Andhra Pradesh
35AKPAnakapalle (3)  00:28-00:29-1m2232.35930mSCRAnakapalle ph.no . 08924-221698, Andhra Pradesh
36YLMElamanchili (2)  00:53-00:54-1m--256.010423mSCRVisakhapatnam District, Andhra Pradesh
37TUNITuni (2)  01:17-01:18-1m1296.17124mSCRTuni ph.no. 08854-252172, Andhra Pradesh
38ANVAnnavaram (3)X  01:32-01:33-1m12112.78327mSCREast Godavari District, Andhra Pradesh
39PAPPithapuram (2)X  01:51-01:52-1m--2137.55622mSCREast Godavari District, Andhra Pradesh
40SLOSamalkot Junction (3)X  02:05-02:06-1m32149.68418mSCRSamalkot, Andhra Pradesh
41APTAnaparti (3)X  02:25-02:26-1m--2176.14521mSCREast Godavari District, Andhra Pradesh
42DWPDwarapudi (3)  02:31-02:32-1m--2179.93120mSCREast Godavari District, Andhra Pradesh
43RJYRajahmundry (3)•X03:10-03:25-15m12199.83623mSCRRajahmundry ph.no. 0883-2420541, Andhra Pradesh
44KVRKovvur (3)  03:38-03:39-1m32207.64325mSCRWest Godavari, Andhra Pradesh
45NDDNidadavolu Junction (3)  03:59-04:00-1m22222.05420mSCRNidadavolu jtn ph.no. 08813-210325, Andhra Pradesh
46TNKUTanuku (2)  04:19-04:20-1m--2239.14512mSCR131, Andhra Pradesh
47ALAttili (1)  04:34-04:35-1m12249.74614mSCRWest Godavari, Andhra Pradesh
48BVRTBhimavaram Town (2)X  05:01-05:02-1m12269.5488mSCRBhimavaram, Andhra Pradesh
49AKVDAkividu (3)X  05:24-05:25-1m--2287.1485mSCRCoast Andhra, Andhra Pradesh
50KKLRKaikaluru (2)X  05:46-05:47-1m--2303.8348mSCRKaikalur, Andhra Pradesh
51GDVGudivada Junction (3)X  06:39-06:40-1m--2333.13211mSCRKrishna District, Andhra Pradesh
52BZAVijayawada Junction (10)X  08:00-08:20-20m12376.35624mSCRVijayawada 520001, Andhra Pradesh
53DIGDuggirala (3)  08:43-08:44-1m--2397.86516mSCRDuggirala, Andhra Pradesh
54TELTenali Junction (5)  08:53-08:54-1m32407.56616mSCRTel: 08644-227834, Andhra Pradesh
55NDONidubrolu (3)X  09:14-09:15-1m--2429.5659mSCRNidubrolu, Andhra Pradesh
56BPPBapatla (3)  09:34-09:35-1m22450.17510mSCRBapatla, Andhra Pradesh
57CLXChirala (4)  09:47-09:48-1m--2465.2528mSCRChirala, Andhra Pradesh
58VTMVetapalem (3)  09:57-09:58-1m--2473.1688mSCRVetapalem, Andhra Pradesh
59CJMChinnaganjam (3)X  10:09-10:10-1m--2485.5659mSCRChinna Ganjam, Andhra Pradesh
60ANBAmmanabrolu (3)  10:23-10:24-1m--2499.64516mSCRAmmanabrolu, Andhra Pradesh
61OGLOngole (3)X  10:44-10:45-1m32514.56212mSCROngole, Andhra Pradesh
62TNRTanguturu (3)  11:03-11:04-1m--2533.27210mSCRTanguturu, Andhra Pradesh
63SKMSingarayakonda (2)X  11:12-11:13-1m22542.86326mSCRSingarayakonda, Andhra Pradesh
64KVZKavali (4)XO  11:49-11:50-1m22580.57021mSCRKavali, Andhra Pradesh
65BTTRBitragunta (2)  12:04-12:05-1m22597.07615mSCRBitragunta, Andhra Pradesh
66NLRNellore (4)X  12:32-12:33-1m22631.32721mSCRNellore, Andhra Pradesh
67GDRGudur Junction (3)X  14:00-14:05-5m12669.86819mSCRGudur, Andhra Pradesh
68VDDVendodu (2)X  14:22-14:23-1m--2689.07655mSCRNellore, Andhra Pradesh
69VKIVenkatagiri (3)X  14:36-14:37-1m22705.56477mSCRNellore District, Andhra Pradesh
70KHTSri Kalahasti (2)  15:01 15:00-15:02-1 2m12730.03068mSCRChittoor District, Andhra Pradesh
71RURenigunta Junction (5)  15:48-15:50-2m--2753.113113mSCRChittoor District, Andhra Pradesh
72TPTYTirupati Main (5)  16:35--42763.0-150mSCRChittoor Distt, Andhra Pradesh
Scroll to Top
Scroll to Bottom